sensor_id;sensor_type;location;lat;lon;timestamp;P1;durP1;ratioP1;P2;durP2;ratioP2
54005;SDS011;39919;38.160;-122.260;2023-03-23T00:00:52;0.68;;;0.10;;
54005;SDS011;39919;38.160;-122.260;2023-03-23T00:03:21;1.67;;;0.10;;
54005;SDS011;39919;38.160;-122.260;2023-03-23T00:05:54;0.50;;;0.10;;
54005;SDS011;39919;38.160;-122.260;2023-03-23T00:08:31;0.85;;;0.00;;
54005;SDS011;39919;38.160;-122.260;2023-03-23T00:11:05;1.35;;;0.00;;
54005;SDS011;39919;38.160;-122.260;2023-03-23T00:13:34;0.55;;;0.00;;
54005;SDS011;39919;38.160;-122.260;2023-03-23T00:16:03;0.28;;;0.00;;
54005;SDS011;39919;38.160;-122.260;2023-03-23T00:18:44;0.60;;;0.10;;
54005;SDS011;39919;38.160;-122.260;2023-03-23T00:21:15;0.93;;;0.10;;
54005;SDS011;39919;38.160;-122.260;2023-03-23T00:23:46;0.85;;;0.00;;
54005;SDS011;39919;38.160;-122.260;2023-03-23T00:26:20;0.43;;;0.00;;
54005;SDS011;39919;38.160;-122.260;2023-03-23T00:28:49;0.73;;;0.43;;
54005;SDS011;39919;38.160;-122.260;2023-03-23T00:31:18;0.35;;;0.10;;
54005;SDS011;39919;38.160;-122.260;2023-03-23T00:33:47;1.38;;;0.10;;
54005;SDS011;39919;38.160;-122.260;2023-03-23T00:36:17;0.77;;;0.10;;
54005;SDS011;39919;38.160;-122.260;2023-03-23T00:38:48;0.35;;;0.10;;
54005;SDS011;39919;38.160;-122.260;2023-03-23T00:41:19;0.95;;;0.00;;
54005;SDS011;39919;38.160;-122.260;2023-03-23T00:43:49;0.20;;;0.10;;
54005;SDS011;39919;38.160;-122.260;2023-03-23T00:46:18;0.30;;;0.00;;
54005;SDS011;39919;38.160;-122.260;2023-03-23T00:48:48;0.30;;;0.00;;
54005;SDS011;39919;38.160;-122.260;2023-03-23T00:51:17;0.20;;;0.08;;
54005;SDS011;39919;38.160;-122.260;2023-03-23T00:53:46;0.68;;;0.10;;
54005;SDS011;39919;38.160;-122.260;2023-03-23T00:56:15;1.65;;;0.03;;
54005;SDS011;39919;38.160;-122.260;2023-03-23T00:58:46;1.70;;;0.10;;
54005;SDS011;39919;38.160;-122.260;2023-03-23T01:01:15;0.95;;;0.05;;
54005;SDS011;39919;38.160;-122.260;2023-03-23T01:03:47;1.00;;;0.10;;
54005;SDS011;39919;38.160;-122.260;2023-03-23T01:06:18;1.02;;;0.10;;
54005;SDS011;39919;38.160;-122.260;2023-03-23T01:08:47;1.65;;;0.20;;
54005;SDS011;39919;38.160;-122.260;2023-03-23T01:11:19;0.55;;;0.10;;
54005;SDS011;39919;38.160;-122.260;2023-03-23T01:13:50;1.58;;;0.00;;
54005;SDS011;39919;38.160;-122.260;2023-03-23T01:16:20;0.80;;;0.00;;
54005;SDS011;39919;38.160;-122.260;2023-03-23T01:18:50;1.23;;;0.10;;
54005;SDS011;39919;38.160;-122.260;2023-03-23T01:21:19;1.45;;;0.00;;
54005;SDS011;39919;38.160;-122.260;2023-03-23T01:23:50;1.05;;;0.00;;
54005;SDS011;39919;38.160;-122.260;2023-03-23T01:26:20;0.25;;;0.00;;
54005;SDS011;39919;38.160;-122.260;2023-03-23T01:28:53;0.95;;;0.00;;
54005;SDS011;39919;38.160;-122.260;2023-03-23T01:31:23;0.65;;;0.00;;
54005;SDS011;39919;38.160;-122.260;2023-03-23T01:33:56;1.48;;;0.20;;
54005;SDS011;39919;38.160;-122.260;2023-03-23T01:36:25;0.20;;;0.00;;
54005;SDS011;39919;38.160;-122.260;2023-03-23T01:38:58;0.20;;;0.00;;
54005;SDS011;39919;38.160;-122.260;2023-03-23T01:41:29;0.22;;;0.00;;
54005;SDS011;39919;38.160;-122.260;2023-03-23T01:44:01;0.30;;;0.03;;
54005;SDS011;39919;38.160;-122.260;2023-03-23T01:46:32;0.38;;;0.00;;
54005;SDS011;39919;38.160;-122.260;2023-03-23T01:49:04;1.17;;;0.20;;
54005;SDS011;39919;38.160;-122.260;2023-03-23T01:51:37;6.30;;;0.13;;
54005;SDS011;39919;38.160;-122.260;2023-03-23T01:54:10;2.63;;;0.30;;
54005;SDS011;39919;38.160;-122.260;2023-03-23T01:56:45;2.83;;;0.20;;
54005;SDS011;39919;38.160;-122.260;2023-03-23T01:59:20;4.00;;;0.20;;
54005;SDS011;39919;38.160;-122.260;2023-03-23T02:01:51;4.88;;;0.20;;
54005;SDS011;39919;38.160;-122.260;2023-03-23T02:04:21;1.98;;;0.15;;
54005;SDS011;39919;38.160;-122.260;2023-03-23T02:06:52;2.47;;;0.10;;
54005;SDS011;39919;38.160;-122.260;2023-03-23T02:09:24;1.70;;;0.17;;
54005;SDS011;39919;38.160;-122.260;2023-03-23T02:11:53;2.72;;;0.30;;
54005;SDS011;39919;38.160;-122.260;2023-03-23T02:14:26;3.50;;;0.35;;
54005;SDS011;39919;38.160;-122.260;2023-03-23T02:16:58;2.17;;;0.28;;
54005;SDS011;39919;38.160;-122.260;2023-03-23T02:19:45;5.07;;;0.52;;
54005;SDS011;39919;38.160;-122.260;2023-03-23T02:22:44;6.43;;;0.30;;
54005;SDS011;39919;38.160;-122.260;2023-03-23T02:25:34;3.25;;;0.28;;
54005;SDS011;39919;38.160;-122.260;2023-03-23T02:28:33;4.10;;;0.40;;
54005;SDS011;39919;38.160;-122.260;2023-03-23T02:34:27;3.47;;;0.30;;
54005;SDS011;39919;38.160;-122.260;2023-03-23T02:36:58;2.47;;;0.20;;
54005;SDS011;39919;38.160;-122.260;2023-03-23T02:39:32;5.38;;;0.22;;
54005;SDS011;39919;38.160;-122.260;2023-03-23T02:42:05;4.30;;;0.20;;
54005;SDS011;39919;38.160;-122.260;2023-03-23T02:44:37;5.43;;;0.65;;
54005;SDS011;39919;38.160;-122.260;2023-03-23T02:47:09;7.30;;;0.43;;
54005;SDS011;39919;38.160;-122.260;2023-03-23T02:49:44;3.58;;;0.40;;
54005;SDS011;39919;38.160;-122.260;2023-03-23T02:52:16;3.08;;;0.43;;
54005;SDS011;39919;38.160;-122.260;2023-03-23T02:54:48;3.28;;;0.20;;
54005;SDS011;39919;38.160;-122.260;2023-03-23T02:57:19;5.40;;;0.22;;
54005;SDS011;39919;38.160;-122.260;2023-03-23T02:59:49;1.23;;;0.20;;
54005;SDS011;39919;38.160;-122.260;2023-03-23T03:02:20;2.67;;;0.20;;
54005;SDS011;39919;38.160;-122.260;2023-03-23T03:04:54;3.38;;;0.20;;
54005;SDS011;39919;38.160;-122.260;2023-03-23T03:10:15;5.85;;;1.40;;
54005;SDS011;39919;38.160;-122.260;2023-03-23T03:12:51;7.38;;;0.75;;
54005;SDS011;39919;38.160;-122.260;2023-03-23T03:15:26;10.70;;;0.50;;
54005;SDS011;39919;38.160;-122.260;2023-03-23T03:18:02;5.35;;;0.52;;
54005;SDS011;39919;38.160;-122.260;2023-03-23T03:20:40;4.88;;;0.80;;
54005;SDS011;39919;38.160;-122.260;2023-03-23T03:23:13;4.05;;;0.30;;
54005;SDS011;39919;38.160;-122.260;2023-03-23T03:25:44;4.30;;;0.28;;
54005;SDS011;39919;38.160;-122.260;2023-03-23T03:28:16;8.63;;;0.50;;
54005;SDS011;39919;38.160;-122.260;2023-03-23T03:30:47;4.55;;;0.30;;
54005;SDS011;39919;38.160;-122.260;2023-03-23T03:33:21;5.78;;;0.60;;
54005;SDS011;39919;38.160;-122.260;2023-03-23T03:35:54;7.32;;;0.90;;
54005;SDS011;39919;38.160;-122.260;2023-03-23T03:38:26;5.50;;;0.60;;
54005;SDS011;39919;38.160;-122.260;2023-03-23T03:40:56;6.68;;;1.30;;
54005;SDS011;39919;38.160;-122.260;2023-03-23T03:43:28;8.85;;;2.35;;
54005;SDS011;39919;38.160;-122.260;2023-03-23T03:45:57;10.25;;;1.05;;
54005;SDS011;39919;38.160;-122.260;2023-03-23T03:48:27;5.35;;;1.42;;
54005;SDS011;39919;38.160;-122.260;2023-03-23T03:50:58;8.50;;;1.30;;
54005;SDS011;39919;38.160;-122.260;2023-03-23T03:53:28;6.65;;;1.10;;
54005;SDS011;39919;38.160;-122.260;2023-03-23T03:55:57;6.72;;;1.20;;
54005;SDS011;39919;38.160;-122.260;2023-03-23T03:58:28;11.43;;;1.77;;
54005;SDS011;39919;38.160;-122.260;2023-03-23T04:00:58;13.20;;;2.10;;
54005;SDS011;39919;38.160;-122.260;2023-03-23T04:03:31;10.45;;;1.67;;
54005;SDS011;39919;38.160;-122.260;2023-03-23T04:06:03;11.63;;;2.03;;
54005;SDS011;39919;38.160;-122.260;2023-03-23T04:08:33;8.73;;;1.85;;
54005;SDS011;39919;38.160;-122.260;2023-03-23T04:11:03;5.78;;;0.82;;
54005;SDS011;39919;38.160;-122.260;2023-03-23T04:13:33;7.05;;;1.13;;
54005;SDS011;39919;38.160;-122.260;2023-03-23T04:16:03;10.38;;;1.77;;
54005;SDS011;39919;38.160;-122.260;2023-03-23T04:18:34;7.50;;;2.05;;
54005;SDS011;39919;38.160;-122.260;2023-03-23T04:21:05;9.95;;;1.52;;
54005;SDS011;39919;38.160;-122.260;2023-03-23T04:23:35;10.75;;;1.38;;
54005;SDS011;39919;38.160;-122.260;2023-03-23T04:26:05;9.10;;;1.58;;
54005;SDS011;39919;38.160;-122.260;2023-03-23T04:28:34;12.38;;;1.20;;
54005;SDS011;39919;38.160;-122.260;2023-03-23T04:31:04;7.28;;;0.98;;
54005;SDS011;39919;38.160;-122.260;2023-03-23T04:33:34;8.88;;;0.88;;
54005;SDS011;39919;38.160;-122.260;2023-03-23T04:36:05;9.73;;;0.82;;
54005;SDS011;39919;38.160;-122.260;2023-03-23T04:38:35;11.40;;;1.67;;
54005;SDS011;39919;38.160;-122.260;2023-03-23T04:41:04;7.97;;;0.73;;
54005;SDS011;39919;38.160;-122.260;2023-03-23T04:43:33;7.22;;;1.30;;
54005;SDS011;39919;38.160;-122.260;2023-03-23T04:46:08;8.43;;;0.80;;
54005;SDS011;39919;38.160;-122.260;2023-03-23T04:48:37;4.25;;;0.50;;
54005;SDS011;39919;38.160;-122.260;2023-03-23T04:51:08;13.07;;;1.60;;
54005;SDS011;39919;38.160;-122.260;2023-03-23T04:53:37;13.15;;;1.77;;
54005;SDS011;39919;38.160;-122.260;2023-03-23T04:56:08;11.32;;;1.48;;
54005;SDS011;39919;38.160;-122.260;2023-03-23T04:58:39;18.63;;;2.38;;
54005;SDS011;39919;38.160;-122.260;2023-03-23T05:01:09;23.60;;;2.55;;
54005;SDS011;39919;38.160;-122.260;2023-03-23T05:03:40;11.98;;;1.33;;
54005;SDS011;39919;38.160;-122.260;2023-03-23T05:06:12;13.60;;;1.38;;
54005;SDS011;39919;38.160;-122.260;2023-03-23T05:08:41;11.82;;;1.40;;
54005;SDS011;39919;38.160;-122.260;2023-03-23T05:11:10;15.93;;;2.33;;
54005;SDS011;39919;38.160;-122.260;2023-03-23T05:13:39;12.18;;;2.05;;
54005;SDS011;39919;38.160;-122.260;2023-03-23T05:16:09;17.67;;;2.47;;
54005;SDS011;39919;38.160;-122.260;2023-03-23T05:18:39;14.48;;;1.38;;
54005;SDS011;39919;38.160;-122.260;2023-03-23T05:21:12;11.75;;;2.33;;
54005;SDS011;39919;38.160;-122.260;2023-03-23T05:23:41;11.45;;;2.13;;
54005;SDS011;39919;38.160;-122.260;2023-03-23T05:26:11;16.70;;;1.63;;
54005;SDS011;39919;38.160;-122.260;2023-03-23T05:28:40;18.15;;;1.75;;
54005;SDS011;39919;38.160;-122.260;2023-03-23T05:31:09;17.70;;;2.92;;
54005;SDS011;39919;38.160;-122.260;2023-03-23T05:33:38;14.30;;;2.47;;
54005;SDS011;39919;38.160;-122.260;2023-03-23T05:36:08;16.02;;;1.83;;
54005;SDS011;39919;38.160;-122.260;2023-03-23T05:38:40;20.77;;;1.98;;
54005;SDS011;39919;38.160;-122.260;2023-03-23T05:41:13;15.32;;;2.28;;
54005;SDS011;39919;38.160;-122.260;2023-03-23T05:43:43;22.45;;;2.75;;
54005;SDS011;39919;38.160;-122.260;2023-03-23T05:46:12;20.42;;;2.42;;
54005;SDS011;39919;38.160;-122.260;2023-03-23T05:48:43;17.25;;;2.00;;
54005;SDS011;39919;38.160;-122.260;2023-03-23T05:51:12;23.50;;;3.67;;
54005;SDS011;39919;38.160;-122.260;2023-03-23T05:53:44;20.63;;;2.92;;
54005;SDS011;39919;38.160;-122.260;2023-03-23T05:56:14;22.85;;;2.83;;
54005;SDS011;39919;38.160;-122.260;2023-03-23T05:58:43;18.45;;;2.63;;
54005;SDS011;39919;38.160;-122.260;2023-03-23T06:01:13;20.10;;;2.78;;
54005;SDS011;39919;38.160;-122.260;2023-03-23T06:03:42;31.48;;;3.20;;
54005;SDS011;39919;38.160;-122.260;2023-03-23T06:06:12;26.42;;;3.65;;
54005;SDS011;39919;38.160;-122.260;2023-03-23T06:08:47;15.60;;;3.13;;
54005;SDS011;39919;38.160;-122.260;2023-03-23T06:11:18;27.27;;;4.32;;
54005;SDS011;39919;38.160;-122.260;2023-03-23T06:13:48;23.20;;;3.22;;
54005;SDS011;39919;38.160;-122.260;2023-03-23T06:16:17;17.70;;;2.63;;
54005;SDS011;39919;38.160;-122.260;2023-03-23T06:18:47;23.27;;;2.75;;
54005;SDS011;39919;38.160;-122.260;2023-03-23T06:21:16;18.70;;;2.85;;
54005;SDS011;39919;38.160;-122.260;2023-03-23T06:23:49;29.63;;;3.33;;
54005;SDS011;39919;38.160;-122.260;2023-03-23T06:26:18;15.90;;;2.72;;
54005;SDS011;39919;38.160;-122.260;2023-03-23T06:28:48;13.48;;;3.42;;
54005;SDS011;39919;38.160;-122.260;2023-03-23T06:31:18;12.80;;;2.05;;
54005;SDS011;39919;38.160;-122.260;2023-03-23T06:33:48;14.95;;;1.95;;
54005;SDS011;39919;38.160;-122.260;2023-03-23T06:36:17;18.98;;;2.55;;
54005;SDS011;39919;38.160;-122.260;2023-03-23T06:38:46;19.30;;;2.63;;
54005;SDS011;39919;38.160;-122.260;2023-03-23T06:41:17;17.90;;;2.20;;
54005;SDS011;39919;38.160;-122.260;2023-03-23T06:43:46;20.35;;;2.30;;
54005;SDS011;39919;38.160;-122.260;2023-03-23T06:46:15;16.08;;;1.75;;
54005;SDS011;39919;38.160;-122.260;2023-03-23T06:48:46;20.15;;;2.08;;
54005;SDS011;39919;38.160;-122.260;2023-03-23T06:51:17;10.43;;;1.80;;
54005;SDS011;39919;38.160;-122.260;2023-03-23T06:53:47;15.48;;;2.00;;
54005;SDS011;39919;38.160;-122.260;2023-03-23T06:56:18;21.90;;;2.08;;
54005;SDS011;39919;38.160;-122.260;2023-03-23T06:58:47;25.35;;;2.35;;
54005;SDS011;39919;38.160;-122.260;2023-03-23T07:01:16;13.73;;;2.10;;
54005;SDS011;39919;38.160;-122.260;2023-03-23T07:03:45;13.32;;;1.42;;
54005;SDS011;39919;38.160;-122.260;2023-03-23T07:06:15;16.80;;;2.25;;
54005;SDS011;39919;38.160;-122.260;2023-03-23T07:08:44;9.90;;;1.75;;
54005;SDS011;39919;38.160;-122.260;2023-03-23T07:11:15;13.98;;;2.03;;
54005;SDS011;39919;38.160;-122.260;2023-03-23T07:13:44;17.52;;;1.83;;
54005;SDS011;39919;38.160;-122.260;2023-03-23T07:16:15;20.48;;;3.38;;
54005;SDS011;39919;38.160;-122.260;2023-03-23T07:18:45;13.52;;;2.03;;
54005;SDS011;39919;38.160;-122.260;2023-03-23T07:21:14;13.65;;;1.60;;
54005;SDS011;39919;38.160;-122.260;2023-03-23T07:23:43;24.90;;;2.38;;
54005;SDS011;39919;38.160;-122.260;2023-03-23T07:26:15;12.32;;;1.70;;
54005;SDS011;39919;38.160;-122.260;2023-03-23T07:28:44;19.63;;;2.50;;
54005;SDS011;39919;38.160;-122.260;2023-03-23T07:31:13;18.70;;;2.20;;
54005;SDS011;39919;38.160;-122.260;2023-03-23T07:33:43;19.13;;;1.83;;
54005;SDS011;39919;38.160;-122.260;2023-03-23T07:36:18;15.02;;;1.65;;
54005;SDS011;39919;38.160;-122.260;2023-03-23T07:38:47;11.93;;;2.03;;
54005;SDS011;39919;38.160;-122.260;2023-03-23T07:41:18;16.63;;;1.77;;
54005;SDS011;39919;38.160;-122.260;2023-03-23T07:43:47;16.45;;;1.88;;
54005;SDS011;39919;38.160;-122.260;2023-03-23T07:46:17;24.40;;;4.00;;
54005;SDS011;39919;38.160;-122.260;2023-03-23T07:48:46;17.42;;;1.92;;
54005;SDS011;39919;38.160;-122.260;2023-03-23T07:51:16;18.20;;;1.80;;
54005;SDS011;39919;38.160;-122.260;2023-03-23T07:53:45;12.05;;;1.77;;
54005;SDS011;39919;38.160;-122.260;2023-03-23T07:56:15;13.32;;;1.30;;
54005;SDS011;39919;38.160;-122.260;2023-03-23T07:58:46;18.23;;;2.10;;
54005;SDS011;39919;38.160;-122.260;2023-03-23T08:01:17;15.77;;;1.73;;
54005;SDS011;39919;38.160;-122.260;2023-03-23T08:03:46;15.68;;;3.10;;
54005;SDS011;39919;38.160;-122.260;2023-03-23T08:06:15;14.43;;;0.90;;
54005;SDS011;39919;38.160;-122.260;2023-03-23T08:08:45;8.68;;;1.23;;
54005;SDS011;39919;38.160;-122.260;2023-03-23T08:11:15;17.45;;;2.05;;
54005;SDS011;39919;38.160;-122.260;2023-03-23T08:13:47;15.30;;;1.17;;
54005;SDS011;39919;38.160;-122.260;2023-03-23T08:16:17;14.52;;;2.10;;
54005;SDS011;39919;38.160;-122.260;2023-03-23T08:18:46;12.43;;;2.42;;
54005;SDS011;39919;38.160;-122.260;2023-03-23T08:21:16;7.25;;;0.85;;
54005;SDS011;39919;38.160;-122.260;2023-03-23T08:23:46;13.55;;;1.70;;
54005;SDS011;39919;38.160;-122.260;2023-03-23T08:26:16;9.20;;;1.45;;
54005;SDS011;39919;38.160;-122.260;2023-03-23T08:28:47;17.75;;;1.48;;
54005;SDS011;39919;38.160;-122.260;2023-03-23T08:31:17;9.80;;;1.20;;
54005;SDS011;39919;38.160;-122.260;2023-03-23T08:33:47;7.95;;;1.20;;
54005;SDS011;39919;38.160;-122.260;2023-03-23T08:36:17;9.23;;;0.93;;
54005;SDS011;39919;38.160;-122.260;2023-03-23T08:38:46;15.02;;;2.58;;
54005;SDS011;39919;38.160;-122.260;2023-03-23T08:41:17;16.23;;;1.70;;
54005;SDS011;39919;38.160;-122.260;2023-03-23T08:43:49;16.40;;;1.58;;
54005;SDS011;39919;38.160;-122.260;2023-03-23T08:46:19;10.60;;;1.15;;
54005;SDS011;39919;38.160;-122.260;2023-03-23T08:48:49;16.05;;;2.05;;
54005;SDS011;39919;38.160;-122.260;2023-03-23T08:51:19;9.02;;;1.63;;
54005;SDS011;39919;38.160;-122.260;2023-03-23T08:53:49;10.00;;;0.90;;
54005;SDS011;39919;38.160;-122.260;2023-03-23T08:56:22;15.05;;;0.90;;
54005;SDS011;39919;38.160;-122.260;2023-03-23T08:58:51;10.05;;;1.23;;
54005;SDS011;39919;38.160;-122.260;2023-03-23T09:01:21;18.30;;;1.50;;
54005;SDS011;39919;38.160;-122.260;2023-03-23T09:03:52;12.57;;;1.17;;
54005;SDS011;39919;38.160;-122.260;2023-03-23T09:06:21;14.43;;;1.42;;
54005;SDS011;39919;38.160;-122.260;2023-03-23T09:08:50;8.68;;;1.17;;
54005;SDS011;39919;38.160;-122.260;2023-03-23T09:11:23;16.65;;;1.77;;
54005;SDS011;39919;38.160;-122.260;2023-03-23T09:13:52;14.32;;;1.40;;
54005;SDS011;39919;38.160;-122.260;2023-03-23T09:16:22;16.13;;;1.65;;
54005;SDS011;39919;38.160;-122.260;2023-03-23T09:18:54;12.52;;;1.02;;
54005;SDS011;39919;38.160;-122.260;2023-03-23T09:21:24;14.00;;;1.55;;
54005;SDS011;39919;38.160;-122.260;2023-03-23T09:23:54;13.63;;;1.40;;
54005;SDS011;39919;38.160;-122.260;2023-03-23T09:26:26;8.20;;;1.20;;
54005;SDS011;39919;38.160;-122.260;2023-03-23T09:28:56;9.25;;;1.25;;
54005;SDS011;39919;38.160;-122.260;2023-03-23T09:31:25;11.43;;;1.25;;
54005;SDS011;39919;38.160;-122.260;2023-03-23T09:33:57;11.88;;;1.38;;
54005;SDS011;39919;38.160;-122.260;2023-03-23T09:36:28;10.70;;;1.35;;
54005;SDS011;39919;38.160;-122.260;2023-03-23T09:38:58;20.08;;;2.47;;
54005;SDS011;39919;38.160;-122.260;2023-03-23T09:41:39;11.63;;;1.40;;
54005;SDS011;39919;38.160;-122.260;2023-03-23T09:44:22;11.23;;;1.75;;
54005;SDS011;39919;38.160;-122.260;2023-03-23T09:46:57;14.32;;;1.58;;
54005;SDS011;39919;38.160;-122.260;2023-03-23T09:49:33;13.53;;;1.67;;
54005;SDS011;39919;38.160;-122.260;2023-03-23T09:52:05;11.77;;;2.08;;
54005;SDS011;39919;38.160;-122.260;2023-03-23T09:54:40;10.02;;;1.17;;
54005;SDS011;39919;38.160;-122.260;2023-03-23T09:57:14;7.93;;;0.90;;
54005;SDS011;39919;38.160;-122.260;2023-03-23T09:59:49;7.15;;;1.13;;
54005;SDS011;39919;38.160;-122.260;2023-03-23T10:02:27;10.63;;;1.40;;
54005;SDS011;39919;38.160;-122.260;2023-03-23T10:08:05;17.70;;;1.63;;
54005;SDS011;39919;38.160;-122.260;2023-03-23T10:10:43;5.93;;;0.73;;
54005;SDS011;39919;38.160;-122.260;2023-03-23T10:13:22;5.93;;;0.73;;
54005;SDS011;39919;38.160;-122.260;2023-03-23T10:15:58;13.70;;;1.63;;
54005;SDS011;39919;38.160;-122.260;2023-03-23T10:18:29;6.53;;;1.17;;
54005;SDS011;39919;38.160;-122.260;2023-03-23T10:21:01;15.02;;;1.17;;
54005;SDS011;39919;38.160;-122.260;2023-03-23T10:23:43;11.63;;;0.85;;
54005;SDS011;39919;38.160;-122.260;2023-03-23T10:26:23;7.30;;;0.90;;
54005;SDS011;39919;38.160;-122.260;2023-03-23T10:29:07;9.70;;;1.35;;
54005;SDS011;39919;38.160;-122.260;2023-03-23T10:31:43;11.10;;;1.00;;
54005;SDS011;39919;38.160;-122.260;2023-03-23T10:34:17;9.10;;;0.95;;
54005;SDS011;39919;38.160;-122.260;2023-03-23T10:36:55;6.10;;;0.75;;
54005;SDS011;39919;38.160;-122.260;2023-03-23T10:39:31;10.55;;;1.05;;
54005;SDS011;39919;38.160;-122.260;2023-03-23T10:42:07;6.88;;;0.60;;
54005;SDS011;39919;38.160;-122.260;2023-03-23T10:44:38;4.63;;;0.65;;
54005;SDS011;39919;38.160;-122.260;2023-03-23T10:47:07;7.55;;;0.60;;
54005;SDS011;39919;38.160;-122.260;2023-03-23T10:49:39;8.30;;;0.93;;
54005;SDS011;39919;38.160;-122.260;2023-03-23T10:52:24;5.00;;;0.40;;
54005;SDS011;39919;38.160;-122.260;2023-03-23T10:55:00;5.38;;;0.50;;
54005;SDS011;39919;38.160;-122.260;2023-03-23T10:57:32;5.60;;;0.77;;
54005;SDS011;39919;38.160;-122.260;2023-03-23T11:00:04;6.63;;;0.45;;
54005;SDS011;39919;38.160;-122.260;2023-03-23T11:02:38;3.75;;;0.20;;
54005;SDS011;39919;38.160;-122.260;2023-03-23T11:05:13;3.10;;;0.30;;
54005;SDS011;39919;38.160;-122.260;2023-03-23T11:07:48;5.43;;;0.68;;
54005;SDS011;39919;38.160;-122.260;2023-03-23T11:10:20;8.30;;;0.40;;
54005;SDS011;39919;38.160;-122.260;2023-03-23T11:12:50;5.50;;;0.40;;
54005;SDS011;39919;38.160;-122.260;2023-03-23T11:15:28;6.00;;;0.40;;
54005;SDS011;39919;38.160;-122.260;2023-03-23T11:17:58;3.88;;;0.55;;
54005;SDS011;39919;38.160;-122.260;2023-03-23T11:20:28;2.80;;;0.40;;
54005;SDS011;39919;38.160;-122.260;2023-03-23T11:22:58;6.45;;;0.40;;
54005;SDS011;39919;38.160;-122.260;2023-03-23T11:25:27;7.70;;;0.57;;
54005;SDS011;39919;38.160;-122.260;2023-03-23T11:27:55;6.07;;;0.45;;
54005;SDS011;39919;38.160;-122.260;2023-03-23T11:30:29;7.78;;;0.85;;
54005;SDS011;39919;38.160;-122.260;2023-03-23T11:32:59;5.53;;;0.60;;
54005;SDS011;39919;38.160;-122.260;2023-03-23T11:35:30;2.83;;;0.30;;
54005;SDS011;39919;38.160;-122.260;2023-03-23T11:37:58;5.80;;;0.35;;
54005;SDS011;39919;38.160;-122.260;2023-03-23T11:40:29;9.20;;;0.68;;
54005;SDS011;39919;38.160;-122.260;2023-03-23T11:43:06;6.07;;;0.50;;
54005;SDS011;39919;38.160;-122.260;2023-03-23T11:45:38;5.03;;;0.20;;
54005;SDS011;39919;38.160;-122.260;2023-03-23T11:48:11;7.13;;;0.30;;
54005;SDS011;39919;38.160;-122.260;2023-03-23T11:50:45;6.13;;;1.20;;
54005;SDS011;39919;38.160;-122.260;2023-03-23T11:53:17;10.48;;;1.15;;
54005;SDS011;39919;38.160;-122.260;2023-03-23T11:55:55;7.03;;;0.32;;
54005;SDS011;39919;38.160;-122.260;2023-03-23T11:58:25;5.05;;;1.08;;
54005;SDS011;39919;38.160;-122.260;2023-03-23T12:01:02;4.15;;;0.60;;
54005;SDS011;39919;38.160;-122.260;2023-03-23T12:03:41;4.70;;;0.63;;
54005;SDS011;39919;38.160;-122.260;2023-03-23T12:06:13;2.08;;;0.30;;
54005;SDS011;39919;38.160;-122.260;2023-03-23T12:08:50;6.22;;;0.52;;
54005;SDS011;39919;38.160;-122.260;2023-03-23T12:11:23;8.13;;;0.60;;
54005;SDS011;39919;38.160;-122.260;2023-03-23T12:13:56;5.82;;;0.90;;
54005;SDS011;39919;38.160;-122.260;2023-03-23T12:16:32;3.05;;;0.30;;
54005;SDS011;39919;38.160;-122.260;2023-03-23T12:19:06;9.18;;;1.40;;
54005;SDS011;39919;38.160;-122.260;2023-03-23T12:21:41;5.60;;;0.65;;
54005;SDS011;39919;38.160;-122.260;2023-03-23T12:24:17;4.32;;;0.30;;
54005;SDS011;39919;38.160;-122.260;2023-03-23T12:26:50;3.15;;;0.50;;
54005;SDS011;39919;38.160;-122.260;2023-03-23T12:29:32;3.22;;;0.32;;
54005;SDS011;39919;38.160;-122.260;2023-03-23T12:32:19;7.18;;;0.45;;
54005;SDS011;39919;38.160;-122.260;2023-03-23T12:34:53;5.88;;;0.22;;
54005;SDS011;39919;38.160;-122.260;2023-03-23T12:37:27;2.80;;;0.20;;
54005;SDS011;39919;38.160;-122.260;2023-03-23T12:40:01;10.50;;;0.45;;
54005;SDS011;39919;38.160;-122.260;2023-03-23T12:42:35;5.43;;;0.20;;
54005;SDS011;39919;38.160;-122.260;2023-03-23T12:45:07;4.50;;;0.50;;
54005;SDS011;39919;38.160;-122.260;2023-03-23T12:47:46;7.57;;;0.40;;
54005;SDS011;39919;38.160;-122.260;2023-03-23T12:50:16;9.63;;;0.30;;
54005;SDS011;39919;38.160;-122.260;2023-03-23T12:52:49;4.13;;;0.20;;
54005;SDS011;39919;38.160;-122.260;2023-03-23T12:55:20;3.60;;;0.35;;
54005;SDS011;39919;38.160;-122.260;2023-03-23T12:57:55;5.00;;;0.22;;
54005;SDS011;39919;38.160;-122.260;2023-03-23T13:00:26;4.78;;;0.40;;
54005;SDS011;39919;38.160;-122.260;2023-03-23T13:03:00;5.03;;;0.40;;
54005;SDS011;39919;38.160;-122.260;2023-03-23T13:05:35;2.20;;;0.22;;
54005;SDS011;39919;38.160;-122.260;2023-03-23T13:08:08;7.15;;;0.60;;
54005;SDS011;39919;38.160;-122.260;2023-03-23T13:10:39;6.28;;;0.45;;
54005;SDS011;39919;38.160;-122.260;2023-03-23T13:13:11;8.57;;;0.32;;
54005;SDS011;39919;38.160;-122.260;2023-03-23T13:15:44;4.13;;;0.30;;
54005;SDS011;39919;38.160;-122.260;2023-03-23T13:18:16;1.35;;;0.20;;
54005;SDS011;39919;38.160;-122.260;2023-03-23T13:20:50;7.38;;;0.50;;
54005;SDS011;39919;38.160;-122.260;2023-03-23T13:23:22;6.13;;;0.55;;
54005;SDS011;39919;38.160;-122.260;2023-03-23T13:25:54;9.35;;;0.52;;
54005;SDS011;39919;38.160;-122.260;2023-03-23T13:28:26;7.10;;;0.40;;
54005;SDS011;39919;38.160;-122.260;2023-03-23T13:30:56;6.13;;;0.40;;
54005;SDS011;39919;38.160;-122.260;2023-03-23T13:33:28;4.45;;;0.30;;
54005;SDS011;39919;38.160;-122.260;2023-03-23T13:36:01;6.43;;;0.35;;
54005;SDS011;39919;38.160;-122.260;2023-03-23T13:38:32;8.77;;;0.40;;
54005;SDS011;39919;38.160;-122.260;2023-03-23T13:41:11;3.65;;;0.28;;
54005;SDS011;39919;38.160;-122.260;2023-03-23T13:46:10;2.75;;;0.30;;
54005;SDS011;39919;38.160;-122.260;2023-03-23T13:48:42;4.50;;;0.30;;
54005;SDS011;39919;38.160;-122.260;2023-03-23T13:51:32;4.38;;;0.50;;
54005;SDS011;39919;38.160;-122.260;2023-03-23T13:54:24;6.03;;;0.47;;
54005;SDS011;39919;38.160;-122.260;2023-03-23T13:56:54;2.78;;;0.40;;
54005;SDS011;39919;38.160;-122.260;2023-03-23T13:59:34;4.63;;;0.25;;
54005;SDS011;39919;38.160;-122.260;2023-03-23T14:02:27;6.72;;;0.65;;
54005;SDS011;39919;38.160;-122.260;2023-03-23T14:05:07;4.55;;;0.30;;
54005;SDS011;39919;38.160;-122.260;2023-03-23T14:07:50;10.10;;;0.30;;
54005;SDS011;39919;38.160;-122.260;2023-03-23T14:10:20;5.50;;;0.70;;
54005;SDS011;39919;38.160;-122.260;2023-03-23T14:12:50;5.25;;;0.30;;
54005;SDS011;39919;38.160;-122.260;2023-03-23T14:15:20;5.35;;;0.40;;
54005;SDS011;39919;38.160;-122.260;2023-03-23T14:17:50;5.47;;;0.40;;
54005;SDS011;39919;38.160;-122.260;2023-03-23T14:20:23;3.88;;;0.55;;
54005;SDS011;39919;38.160;-122.260;2023-03-23T14:22:54;6.38;;;0.60;;
54005;SDS011;39919;38.160;-122.260;2023-03-23T14:25:26;4.80;;;0.73;;
54005;SDS011;39919;38.160;-122.260;2023-03-23T14:27:56;7.45;;;0.95;;
54005;SDS011;39919;38.160;-122.260;2023-03-23T14:30:25;12.85;;;1.90;;
54005;SDS011;39919;38.160;-122.260;2023-03-23T14:32:54;7.13;;;0.93;;
54005;SDS011;39919;38.160;-122.260;2023-03-23T14:35:34;9.10;;;0.80;;
54005;SDS011;39919;38.160;-122.260;2023-03-23T14:38:04;3.05;;;0.30;;
54005;SDS011;39919;38.160;-122.260;2023-03-23T14:40:33;6.75;;;0.50;;
54005;SDS011;39919;38.160;-122.260;2023-03-23T14:43:02;12.07;;;1.38;;